createdAt,value
2019-05-18T00:01:51.293Z,14.28
2019-05-18T00:04:20.500Z,13.87
2019-05-18T00:06:49.585Z,13.77
2019-05-18T00:09:18.782Z,14.53
2019-05-18T00:11:47.939Z,13.77
2019-05-18T00:14:17.188Z,15.10
2019-05-18T00:16:46.287Z,15.10
2019-05-18T00:19:15.409Z,15.27
2019-05-18T00:21:44.428Z,14.53
2019-05-18T00:24:13.589Z,15.23
2019-05-18T00:26:42.688Z,14.00
2019-05-18T00:29:11.758Z,14.50
2019-05-18T00:31:46.927Z,14.67
2019-05-18T00:34:19.404Z,14.87
2019-05-18T00:36:49.083Z,13.77
2019-05-18T00:39:18.874Z,14.17
2019-05-18T00:41:48.092Z,14.63
2019-05-18T00:44:17.250Z,14.40
2019-05-18T00:46:46.572Z,14.70
2019-05-18T00:49:15.593Z,14.63
2019-05-18T00:51:44.745Z,15.03
2019-05-18T00:54:13.840Z,14.33
2019-05-18T00:56:43.353Z,14.63
2019-05-18T00:59:16.072Z,14.63
2019-05-18T01:01:43.328Z,14.47
2019-05-18T01:04:12.404Z,13.93
2019-05-18T01:06:41.497Z,14.87
2019-05-18T01:09:10.680Z,16.12
2019-05-18T01:11:39.845Z,14.47
2019-05-18T01:14:08.942Z,14.07
2019-05-18T01:16:38.128Z,13.23
2019-05-18T01:19:07.282Z,14.10
2019-05-18T01:21:36.403Z,14.57
2019-05-18T01:24:05.662Z,13.40
2019-05-18T01:26:34.899Z,14.47
2019-05-18T01:29:07.676Z,15.67
2019-05-18T01:31:36.960Z,15.00
2019-05-18T01:34:06.097Z,16.83
2019-05-18T01:36:35.293Z,15.67
2019-05-18T01:39:06.639Z,16.53
2019-05-18T01:41:35.791Z,16.33
2019-05-18T01:46:43.225Z,15.77
2019-05-18T01:49:12.360Z,15.70
2019-05-18T01:51:41.456Z,15.67
2019-05-18T01:54:10.566Z,15.87
2019-05-18T01:56:39.723Z,16.50
2019-05-18T01:59:08.807Z,16.10
2019-05-18T02:01:38.403Z,15.43
2019-05-18T02:04:07.499Z,16.63
2019-05-18T02:06:36.835Z,16.40
2019-05-18T02:09:08.551Z,16.43
2019-05-18T02:11:37.752Z,16.80
2019-05-18T02:14:06.895Z,17.67
2019-05-18T02:16:36.020Z,15.97
2019-05-18T02:19:05.167Z,16.85
2019-05-18T02:21:34.362Z,15.83
2019-05-18T02:24:03.651Z,17.53
2019-05-18T02:26:33.065Z,17.00
2019-05-18T02:29:02.549Z,16.57
2019-05-18T02:31:31.647Z,16.48
2019-05-18T02:34:00.987Z,16.20
2019-05-18T02:36:30.036Z,16.00
2019-05-18T02:38:59.134Z,17.50
2019-05-18T02:41:28.265Z,16.00
2019-05-18T02:43:57.363Z,16.03
2019-05-18T02:46:26.440Z,15.43
2019-05-18T02:48:55.621Z,16.27
2019-05-18T02:51:24.892Z,16.33
2019-05-18T02:53:53.986Z,14.73
2019-05-18T02:56:23.099Z,14.27
2019-05-18T02:58:52.176Z,14.03
2019-05-18T03:01:21.252Z,15.23
2019-05-18T03:03:50.363Z,15.03
2019-05-18T03:06:19.561Z,13.97
2019-05-18T03:08:48.681Z,14.13
2019-05-18T03:11:17.820Z,14.50
2019-05-18T03:13:46.884Z,14.38
2019-05-18T03:16:15.974Z,14.83
2019-05-18T03:18:45.106Z,15.30
2019-05-18T03:21:14.281Z,15.95
2019-05-18T03:23:43.421Z,15.10
2019-05-18T03:26:12.639Z,15.43
2019-05-18T03:28:41.745Z,15.70
2019-05-18T03:31:10.883Z,15.13
2019-05-18T03:33:40.077Z,16.05
2019-05-18T03:36:09.340Z,14.93
2019-05-18T03:38:38.511Z,16.00
2019-05-18T03:41:07.643Z,16.13
2019-05-18T03:43:36.843Z,16.23
2019-05-18T03:46:05.927Z,15.53
2019-05-18T03:48:35.126Z,15.13
2019-05-18T03:51:04.204Z,16.67
2019-05-18T03:53:33.321Z,16.23
2019-05-18T03:56:02.549Z,16.33
2019-05-18T03:58:31.711Z,16.23
2019-05-18T04:01:00.905Z,16.33
2019-05-18T04:03:30.105Z,16.47
2019-05-18T04:05:59.336Z,17.43
2019-05-18T04:08:28.625Z,16.23
2019-05-18T04:10:57.885Z,17.43
2019-05-18T04:13:27.016Z,17.60
2019-05-18T04:15:56.188Z,17.30
2019-05-18T04:18:25.325Z,17.83
2019-05-18T04:20:54.462Z,16.20
2019-05-18T04:23:23.579Z,17.60
2019-05-18T04:25:53.229Z,17.40
2019-05-18T04:28:22.410Z,16.10
2019-05-18T04:30:51.653Z,16.80
2019-05-18T04:33:20.842Z,16.87
2019-05-18T04:35:49.961Z,17.10
2019-05-18T04:38:19.213Z,17.30
2019-05-18T04:40:48.343Z,17.57
2019-05-18T04:43:17.498Z,17.40
2019-05-18T04:45:46.726Z,17.33
2019-05-18T04:48:16.095Z,16.50
2019-05-18T04:50:45.308Z,17.87
2019-05-18T04:53:14.470Z,18.67
2019-05-18T04:55:43.687Z,17.00
2019-05-18T04:58:12.866Z,17.17
2019-05-18T05:00:42.065Z,18.00
2019-05-18T05:03:11.247Z,17.20
2019-05-18T05:05:40.364Z,18.13
2019-05-18T05:08:09.461Z,18.97
2019-05-18T05:10:38.676Z,19.00
2019-05-18T05:13:07.840Z,18.97
2019-05-18T05:15:36.848Z,18.37
2019-05-18T05:18:05.993Z,19.30
2019-05-18T05:20:35.001Z,19.50
2019-05-18T05:23:04.163Z,19.50
2019-05-18T05:25:33.723Z,24.80
2019-05-18T05:28:02.933Z,20.40
2019-05-18T05:30:32.178Z,19.50
2019-05-18T05:33:01.420Z,19.98
2019-05-18T05:35:30.558Z,20.23
2019-05-18T05:37:59.818Z,20.20
2019-05-18T05:40:29.032Z,20.83
2019-05-18T05:42:58.402Z,20.23
2019-05-18T05:45:27.699Z,20.97
2019-05-18T05:47:56.833Z,19.87
2019-05-18T05:50:35.468Z,20.67
2019-05-18T05:52:56.698Z,20.43
2019-05-18T05:55:25.877Z,21.00
2019-05-18T05:57:54.987Z,21.07
2019-05-18T06:00:24.127Z,21.00
2019-05-18T06:02:53.244Z,20.80
2019-05-18T06:05:22.429Z,21.43
2019-05-18T06:07:51.621Z,20.57
2019-05-18T06:10:20.785Z,22.20
2019-05-18T06:12:49.889Z,23.33
2019-05-18T06:15:19.287Z,21.63
2019-05-18T06:17:48.438Z,21.93
2019-05-18T06:20:18.453Z,21.53
2019-05-18T06:22:47.619Z,21.93
2019-05-18T06:25:16.819Z,22.97
2019-05-18T06:27:46.009Z,21.83
2019-05-18T06:30:24.131Z,23.43
2019-05-18T06:32:53.323Z,21.33
2019-05-18T06:35:22.455Z,21.17
2019-05-18T06:37:51.797Z,21.43
2019-05-18T06:40:20.910Z,20.85
2019-05-18T06:42:50.024Z,21.25
2019-05-18T06:45:19.264Z,21.87
2019-05-18T06:47:48.600Z,21.47
2019-05-18T06:50:23.239Z,21.03
2019-05-18T06:52:52.330Z,21.20
2019-05-18T06:55:21.445Z,20.87
2019-05-18T06:57:52.211Z,20.70
2019-05-18T07:00:21.451Z,19.90
2019-05-18T07:02:50.724Z,20.88
2019-05-18T07:05:19.928Z,20.67
2019-05-18T07:07:49.125Z,19.57
2019-05-18T07:10:18.321Z,20.27
2019-05-18T07:12:47.440Z,20.60
2019-05-18T07:15:17.925Z,19.13
2019-05-18T07:17:47.096Z,20.73
2019-05-18T07:20:16.618Z,19.93
2019-05-18T07:22:45.808Z,20.12
2019-05-18T07:25:14.988Z,20.37
2019-05-18T07:27:44.219Z,20.60
2019-05-18T07:30:13.592Z,20.27
2019-05-18T07:32:42.715Z,19.93
2019-05-18T07:35:11.952Z,19.87
2019-05-18T07:37:41.137Z,20.47
2019-05-18T07:40:10.413Z,20.80
2019-05-18T07:42:39.525Z,20.00
2019-05-18T07:45:10.112Z,20.27
2019-05-18T07:47:39.231Z,19.20
2019-05-18T07:50:08.747Z,19.35
2019-05-18T07:52:37.884Z,18.90
2019-05-18T07:55:07.472Z,20.97
2019-05-18T07:57:36.586Z,18.92
2019-05-18T08:00:06.692Z,19.43
2019-05-18T08:02:35.777Z,18.43
2019-05-18T08:05:05.783Z,19.00
2019-05-18T08:07:34.867Z,17.57
2019-05-18T08:10:04.617Z,18.47
2019-05-18T08:12:33.813Z,18.10
2019-05-18T08:15:02.946Z,19.92
2019-05-18T08:17:32.328Z,19.32
2019-05-18T08:20:01.499Z,18.90
2019-05-18T08:22:30.766Z,20.43
2019-05-18T08:25:00.145Z,18.48
2019-05-18T08:27:29.545Z,19.23
2019-05-18T08:29:58.810Z,18.85
2019-05-18T08:32:28.062Z,18.67
2019-05-18T08:34:57.345Z,17.50
2019-05-18T08:37:26.526Z,18.48
2019-05-18T08:39:55.637Z,18.30
2019-05-18T08:42:24.822Z,17.32
2019-05-18T08:44:53.994Z,19.62
2019-05-18T08:47:23.191Z,17.73
2019-05-18T08:49:52.379Z,17.87
2019-05-18T08:52:21.464Z,17.65
2019-05-18T08:54:50.554Z,18.47
2019-05-18T08:57:19.671Z,18.10
2019-05-18T08:59:48.775Z,18.32
2019-05-18T09:02:37.071Z,16.30
2019-05-18T09:05:07.410Z,18.32
2019-05-18T09:07:36.596Z,18.02
2019-05-18T09:10:06.055Z,16.82
2019-05-18T09:12:35.213Z,11.25
2019-05-18T09:15:04.634Z,19.00
2019-05-18T09:17:33.783Z,18.87
2019-05-18T09:20:04.704Z,17.55
2019-05-18T09:22:33.823Z,12.58
2019-05-18T09:25:03.087Z,18.27
2019-05-18T09:27:32.200Z,17.37
2019-05-18T09:30:01.319Z,18.92
2019-05-18T09:32:30.412Z,17.10
2019-05-18T09:35:00.492Z,14.10
2019-05-18T09:37:29.898Z,11.18
2019-05-18T09:39:59.714Z,17.55
2019-05-18T09:42:28.944Z,16.80
2019-05-18T09:44:59.111Z,12.18
2019-05-18T09:47:28.372Z,19.20
2019-05-18T09:49:57.516Z,17.20
2019-05-18T09:52:43.503Z,19.05
2019-05-18T09:55:07.337Z,16.10
2019-05-18T09:57:36.466Z,16.67
2019-05-18T10:00:06.545Z,17.87
2019-05-18T10:02:35.640Z,17.85
2019-05-18T10:05:04.980Z,16.10
2019-05-18T10:07:34.163Z,14.38
2019-05-18T10:10:03.424Z,16.42
2019-05-18T10:12:32.719Z,18.00
2019-05-18T10:15:02.353Z,18.42
2019-05-18T10:17:31.731Z,10.32
2019-05-18T10:20:00.987Z,16.35
2019-05-18T10:22:30.532Z,15.15
2019-05-18T10:24:59.626Z,16.02
2019-05-18T10:27:28.843Z,16.30
2019-05-18T10:29:57.934Z,15.80
2019-05-18T10:32:27.014Z,15.28
2019-05-18T10:34:56.128Z,15.78
2019-05-18T10:37:25.204Z,16.57
2019-05-18T10:39:54.277Z,16.00
2019-05-18T10:42:23.473Z,12.68
2019-05-18T10:44:52.528Z,10.48
2019-05-18T10:47:21.733Z,13.93
2019-05-18T10:49:51.092Z,16.37
2019-05-18T10:52:20.289Z,14.17
2019-05-18T10:54:49.435Z,17.12
2019-05-18T10:57:18.555Z,14.95
2019-05-18T10:59:47.659Z,16.45
2019-05-18T11:02:16.728Z,16.73
2019-05-18T11:04:45.800Z,19.30
2019-05-18T11:07:15.695Z,18.87
2019-05-18T11:10:04.255Z,16.60
2019-05-18T11:12:33.447Z,19.60
2019-05-18T11:15:02.724Z,18.80
2019-05-18T11:17:31.797Z,17.50
2019-05-18T11:20:00.879Z,18.57
2019-05-18T11:22:30.050Z,20.90
2019-05-18T11:24:59.147Z,17.65
2019-05-18T11:27:28.288Z,19.42
2019-05-18T11:29:57.302Z,19.57
2019-05-18T11:32:26.458Z,20.48
2019-05-18T11:34:55.647Z,20.77
2019-05-18T11:37:24.852Z,21.52
2019-05-18T11:39:54.001Z,20.95
2019-05-18T11:42:23.121Z,22.45
2019-05-18T11:44:52.252Z,20.43
2019-05-18T11:47:21.472Z,21.12
2019-05-18T11:49:50.681Z,20.62
2019-05-18T11:52:19.873Z,17.55
2019-05-18T11:54:49.152Z,20.05
2019-05-18T11:57:18.224Z,18.23
2019-05-18T11:59:47.403Z,19.62
2019-05-18T12:02:16.515Z,20.60
2019-05-18T12:04:48.677Z,19.52
2019-05-18T12:07:16.546Z,17.92
2019-05-18T12:09:45.659Z,19.45
2019-05-18T12:12:15.083Z,15.75
2019-05-18T12:14:44.162Z,13.72
2019-05-18T12:17:13.310Z,13.88
2019-05-18T12:19:42.401Z,11.50
2019-05-18T12:22:11.511Z,10.30
2019-05-18T12:24:40.725Z,8.70
2019-05-18T12:27:10.215Z,4.60
2019-05-18T12:29:39.172Z,7.17
2019-05-18T12:32:08.297Z,5.55
2019-05-18T12:34:37.415Z,3.95
2019-05-18T12:37:06.608Z,4.17
2019-05-18T12:39:35.672Z,4.50
2019-05-18T12:42:07.472Z,1.42
2019-05-18T12:44:35.578Z,2.47
2019-05-18T12:47:04.666Z,2.00
2019-05-18T12:49:33.836Z,2.77
2019-05-18T12:52:02.883Z,2.98
2019-05-18T12:54:45.671Z,3.80
2019-05-18T12:57:02.872Z,4.55
2019-05-18T12:59:31.972Z,7.00
2019-05-18T13:02:01.130Z,10.05
2019-05-18T13:04:30.128Z,8.03
2019-05-18T13:06:59.217Z,8.50
2019-05-18T13:09:28.280Z,8.45
2019-05-18T13:11:57.625Z,9.85
2019-05-18T13:14:26.820Z,9.00
2019-05-18T13:16:55.891Z,11.65
2019-05-18T13:19:24.971Z,11.12
2019-05-18T13:21:54.090Z,10.85
2019-05-18T13:24:23.259Z,10.40
2019-05-18T13:26:52.372Z,10.18
2019-05-18T13:29:40.864Z,10.43
2019-05-18T13:32:09.988Z,10.78
2019-05-18T13:34:39.135Z,11.50
2019-05-18T13:37:08.335Z,11.00
2019-05-18T13:39:37.509Z,10.25
2019-05-18T13:42:06.604Z,11.40
2019-05-18T13:44:38.082Z,12.15
2019-05-18T13:47:06.486Z,13.05
2019-05-18T13:49:35.554Z,10.35
2019-05-18T13:52:04.741Z,10.43
2019-05-18T13:54:33.835Z,11.60
2019-05-18T13:57:02.915Z,12.55
2019-05-18T13:59:31.993Z,12.70
2019-05-18T14:02:01.195Z,13.75
2019-05-18T14:04:30.295Z,13.80
2019-05-18T14:06:59.493Z,14.23
2019-05-18T14:09:28.562Z,11.28
2019-05-18T14:11:58.331Z,12.80
2019-05-18T14:14:27.543Z,13.10
2019-05-18T14:16:56.625Z,11.95
2019-05-18T14:19:25.795Z,12.28
2019-05-18T14:21:55.286Z,13.38
2019-05-18T14:24:24.436Z,13.28
2019-05-18T14:26:53.473Z,11.63
2019-05-18T14:29:22.599Z,19.37
2019-05-18T14:31:51.961Z,22.50
2019-05-18T14:34:21.848Z,24.27
2019-05-18T14:36:51.020Z,22.98
2019-05-18T14:39:23.285Z,22.87
2019-05-18T14:41:52.891Z,21.25
2019-05-18T14:44:22.397Z,23.57
2019-05-18T14:46:51.987Z,22.73
2019-05-18T14:49:21.306Z,21.33
2019-05-18T14:51:50.480Z,23.20
2019-05-18T14:54:19.725Z,26.10
2019-05-18T14:56:49.786Z,23.18
2019-05-18T14:59:19.065Z,25.02
2019-05-18T15:01:49.146Z,27.77
2019-05-18T15:04:18.420Z,24.75
2019-05-18T15:06:48.151Z,26.97
2019-05-18T15:09:17.346Z,26.05
2019-05-18T15:11:46.428Z,30.23
2019-05-18T15:14:16.468Z,29.12
2019-05-18T15:16:45.740Z,29.18
2019-05-18T15:19:19.456Z,26.85
2019-05-18T15:21:49.084Z,29.18
2019-05-18T15:24:18.246Z,28.23
2019-05-18T15:26:47.804Z,30.17
2019-05-18T15:29:16.968Z,29.20
2019-05-18T15:31:46.736Z,31.02
2019-05-18T15:34:16.074Z,29.60
2019-05-18T15:36:46.576Z,29.00
2019-05-18T15:39:15.677Z,32.75
2019-05-18T15:41:44.873Z,31.93
2019-05-18T15:44:14.049Z,32.17
2019-05-18T15:46:43.209Z,33.45
2019-05-18T15:49:12.487Z,31.55
2019-05-18T15:51:42.020Z,31.25
2019-05-18T15:54:12.823Z,34.83
2019-05-18T15:56:44.201Z,33.40
2019-05-18T15:59:13.079Z,30.40
2019-05-18T16:01:42.382Z,32.60
2019-05-18T16:04:11.564Z,31.35
2019-05-18T16:06:40.740Z,33.83
2019-05-18T16:09:09.859Z,33.15
2019-05-18T16:11:39.138Z,31.55
2019-05-18T16:14:08.317Z,33.70
2019-05-18T16:16:37.388Z,32.65
2019-05-18T16:19:06.484Z,34.20
2019-05-18T16:21:35.600Z,33.02
2019-05-18T16:24:04.689Z,33.15
2019-05-18T16:26:33.811Z,32.75
2019-05-18T16:29:03.066Z,33.25
2019-05-18T16:31:32.091Z,33.10
2019-05-18T16:34:01.326Z,30.23
2019-05-18T16:36:30.657Z,35.03
2019-05-18T16:38:59.828Z,34.60
2019-05-18T16:41:28.956Z,36.17
2019-05-18T16:43:58.080Z,35.40
2019-05-18T16:46:28.117Z,34.63
2019-05-18T16:48:57.125Z,31.17
2019-05-18T16:51:27.147Z,33.13
2019-05-18T16:53:56.376Z,34.78
2019-05-18T16:56:34.855Z,33.28
2019-05-18T16:58:57.569Z,33.38
2019-05-18T17:01:27.658Z,33.70
2019-05-18T17:03:57.027Z,30.37
2019-05-18T17:06:26.877Z,35.78
2019-05-18T17:08:56.082Z,34.88
2019-05-18T17:11:25.702Z,34.10
2019-05-18T17:13:54.839Z,34.40
2019-05-18T17:16:24.848Z,35.50
2019-05-18T17:18:54.372Z,35.48
2019-05-18T17:21:23.858Z,33.75
2019-05-18T17:24:00.215Z,32.13
2019-05-18T17:26:29.324Z,34.20
2019-05-18T17:28:58.441Z,35.60
2019-05-18T17:31:28.926Z,32.78
2019-05-18T17:33:58.935Z,35.13
2019-05-18T17:36:29.447Z,34.18
2019-05-18T17:38:58.656Z,34.60
2019-05-18T17:41:27.984Z,34.98
2019-05-18T17:43:57.964Z,35.48
2019-05-18T17:46:27.090Z,35.80
2019-05-18T17:48:56.302Z,33.35
2019-05-18T17:51:25.911Z,34.58
2019-05-18T17:53:55.208Z,31.45
2019-05-18T17:56:24.441Z,33.83
2019-05-18T17:58:53.634Z,33.08
2019-05-18T18:01:23.757Z,35.50
2019-05-18T18:03:53.099Z,33.53
2019-05-18T18:06:22.199Z,31.33
2019-05-18T18:08:51.315Z,27.95
2019-05-18T18:11:20.446Z,30.23
2019-05-18T18:13:49.667Z,33.15
2019-05-18T18:16:18.735Z,34.85
2019-05-18T18:18:47.897Z,34.80
2019-05-18T18:21:17.013Z,34.23
2019-05-18T18:23:54.261Z,33.95
2019-05-18T18:26:17.020Z,33.88
2019-05-18T18:28:46.046Z,33.02
2019-05-18T18:31:15.224Z,33.48
2019-05-18T18:33:44.415Z,36.00
2019-05-18T18:36:13.528Z,34.53
2019-05-18T18:38:42.778Z,35.35
2019-05-18T18:41:11.964Z,33.75
2019-05-18T18:43:41.152Z,33.83
2019-05-18T18:46:10.285Z,34.85
2019-05-18T18:48:39.451Z,35.00
2019-05-18T18:51:08.629Z,35.85
2019-05-18T18:53:37.873Z,33.50
2019-05-18T18:56:07.041Z,35.45
2019-05-18T18:58:38.752Z,35.38
2019-05-18T19:01:10.705Z,33.33
2019-05-18T19:03:42.060Z,34.53
2019-05-18T19:06:13.825Z,35.20
2019-05-18T19:08:45.542Z,34.75
2019-05-18T19:11:17.792Z,33.80
2019-05-18T19:13:49.650Z,35.57
2019-05-18T19:16:18.871Z,33.80
2019-05-18T19:18:48.081Z,35.03
2019-05-18T19:21:17.252Z,35.17
2019-05-18T19:23:46.428Z,34.90
2019-05-18T19:26:15.609Z,33.63
2019-05-18T19:28:44.723Z,35.45
2019-05-18T19:31:13.937Z,34.70
2019-05-18T19:33:43.014Z,33.48
2019-05-18T19:36:12.173Z,34.55
2019-05-18T19:38:41.415Z,36.42
2019-05-18T19:41:10.551Z,33.50
2019-05-18T19:43:39.720Z,34.75
2019-05-18T19:46:08.892Z,34.18
2019-05-18T19:48:38.014Z,34.78
2019-05-18T19:51:07.248Z,34.53
2019-05-18T19:53:36.423Z,34.13
2019-05-18T19:56:05.622Z,33.83
2019-05-18T19:58:34.834Z,33.48
2019-05-18T20:01:06.650Z,34.35
2019-05-18T20:03:35.824Z,32.35
2019-05-18T20:06:05.185Z,33.05
2019-05-18T20:08:34.188Z,33.50
2019-05-18T20:11:03.226Z,34.08
2019-05-18T20:13:32.315Z,31.55
2019-05-18T20:16:01.396Z,32.75
2019-05-18T20:18:30.491Z,32.65
2019-05-18T20:20:59.648Z,30.88
2019-05-18T20:23:28.759Z,32.90
2019-05-18T20:25:57.957Z,31.65
2019-05-18T20:28:27.027Z,32.60
2019-05-18T20:30:56.211Z,30.23
2019-05-18T20:33:25.306Z,31.23
2019-05-18T20:35:54.392Z,32.95
2019-05-18T20:38:23.520Z,31.80
2019-05-18T20:40:52.732Z,30.50
2019-05-18T20:43:24.833Z,30.20
2019-05-18T20:45:56.171Z,33.23
2019-05-18T20:48:31.140Z,32.70
2019-05-18T20:51:02.263Z,32.30
2019-05-18T20:53:35.556Z,32.08
2019-05-18T20:56:05.995Z,33.18
2019-05-18T20:58:40.405Z,34.15
2019-05-18T21:01:11.125Z,32.67
2019-05-18T21:03:45.662Z,34.10
2019-05-18T21:06:21.408Z,34.95
2019-05-18T21:08:54.523Z,33.05
2019-05-18T21:11:27.999Z,35.05
2019-05-18T21:14:00.931Z,34.83
2019-05-18T21:16:37.941Z,33.58
2019-05-18T21:19:08.716Z,34.33
2019-05-18T21:21:39.770Z,36.15
2019-05-18T21:24:11.687Z,36.30
2019-05-18T21:26:47.318Z,34.55
2019-05-18T21:29:18.790Z,35.20
2019-05-18T21:31:48.218Z,36.23
2019-05-18T21:34:19.029Z,36.13
2019-05-18T21:36:48.240Z,36.75
2019-05-18T21:39:17.369Z,38.17
2019-05-18T21:41:46.484Z,35.95
2019-05-18T21:44:15.815Z,38.65
2019-05-18T21:46:51.862Z,37.00
2019-05-18T21:49:21.172Z,37.33
2019-05-18T21:51:50.520Z,37.93
2019-05-18T21:54:19.701Z,39.30
2019-05-18T21:56:48.793Z,38.25
2019-05-18T21:59:17.890Z,37.60
2019-05-18T22:01:46.984Z,37.95
2019-05-18T22:04:16.510Z,38.83
2019-05-18T22:06:45.816Z,38.53
2019-05-18T22:09:14.954Z,38.30
2019-05-18T22:11:50.262Z,39.73
2019-05-18T22:14:19.659Z,39.30
2019-05-18T22:16:48.796Z,41.13
2019-05-18T22:19:18.016Z,38.53
2019-05-18T22:21:47.238Z,40.40
2019-05-18T22:24:16.379Z,39.10
2019-05-18T22:26:45.644Z,39.75
2019-05-18T22:29:16.527Z,41.17
2019-05-18T22:31:45.660Z,38.35
2019-05-18T22:34:14.735Z,38.47
2019-05-18T22:36:44.087Z,37.67
2019-05-18T22:39:13.271Z,39.20
2019-05-18T22:41:42.511Z,40.17
2019-05-18T22:44:11.744Z,40.17
2019-05-18T22:46:41.055Z,40.03
2019-05-18T22:49:13.230Z,40.05
2019-05-18T22:51:42.514Z,38.17
2019-05-18T22:54:11.652Z,37.45
2019-05-18T22:56:40.751Z,37.03
2019-05-18T22:59:10.023Z,39.03
2019-05-18T23:01:39.296Z,37.03
2019-05-18T23:04:08.488Z,37.98
2019-05-18T23:06:37.713Z,37.75
2019-05-18T23:09:07.595Z,37.03
2019-05-18T23:11:36.756Z,35.87
2019-05-18T23:14:05.884Z,37.83
2019-05-18T23:16:35.010Z,37.83
2019-05-18T23:19:04.318Z,36.80
2019-05-18T23:21:33.452Z,37.30
2019-05-18T23:24:02.491Z,37.73
2019-05-18T23:26:31.632Z,35.83
2019-05-18T23:29:00.747Z,37.35
2019-05-18T23:31:29.838Z,37.60
2019-05-18T23:33:58.995Z,36.80
2019-05-18T23:36:28.114Z,36.33
2019-05-18T23:38:57.351Z,36.77
2019-05-18T23:41:26.422Z,35.95
2019-05-18T23:43:55.639Z,35.93
2019-05-18T23:46:24.679Z,32.73
2019-05-18T23:48:53.838Z,33.88
2019-05-18T23:51:23.009Z,35.43
2019-05-18T23:53:53.785Z,35.88
2019-05-18T23:56:22.892Z,34.27
2019-05-18T23:58:52.036Z,32.48
